Time;durP1;ratioP1;P1;durP2;ratioP2;P2;SDS_P1;SDS_P2;PMS_P1;PMS_P2;Temp;Humidity;BMP_temperature;BMP_pressure;BME280_temperature;BME280_humidity;BME280_pressure;Samples;Min_cycle;Max_cycle;Signal;HPM_P1;HPM_P2
2022/05/13 00:00:06;;;;;;;;;;;;;;;14.30;94.60;99274.09;1682859;84;21276;-73
2022/05/13 00:02:34;;;;;;;;;;;;;;;14.27;94.16;99278.34;1688231;84;20102;-73
2022/05/13 00:05:03;;;;;;;;;;;;;;;14.25;93.78;99289.50;1689693;84;20097;-73
2022/05/13 00:07:31;;;;;;;;;;;;;;;14.22;93.08;99288.24;1689367;84;20562;-73
2022/05/13 00:10:06;;;;;;;;;;;;;;;14.19;92.71;99289.73;1684766;84;20089;-72
2022/05/13 00:12:38;;;;;;;;;;;;;;;14.17;93.01;99287.09;1683314;84;21099;-74
2022/05/13 00:15:23;;;;;;;;;;;;;;;14.11;92.41;99296.17;1664559;85;20132;-72
2022/05/13 00:17:44;;;;;;;;;;;;;;;14.08;92.47;99302.39;1660341;86;20133;-73
2022/05/13 00:20:12;;;;;;;;;;;;;;;14.08;92.07;99305.15;1665527;85;20143;-73
2022/05/13 00:22:52;;;;;;;;;;;;;;;14.03;91.21;99304.57;1665482;86;20148;-72
2022/05/13 00:25:20;;;;;;;;;;;;;;;14.01;91.58;99312.39;1657952;86;22198;-73
2022/05/13 00:27:49;;;;;;;;;;;;;;;13.96;91.14;99313.99;1662830;85;20145;-71
2022/05/13 00:30:19;;;;;;;;;;;;;;;13.93;91.09;99322.95;1644048;86;20486;-72
2022/05/13 00:32:49;;;;;;;;;;;;;;;13.87;90.77;99321.80;1666723;85;20480;-73
2022/05/13 00:35:22;;;;;;;;;;;;;;;13.83;90.68;99320.91;1633673;87;20150;-73
2022/05/13 00:37:51;;;;;;;;;;;;;;;13.80;90.79;99320.20;1638842;87;20107;-73
2022/05/13 00:40:27;;;;;;;;;;;;;;;13.74;90.98;99322.16;1640077;87;20106;-72
2022/05/13 00:43:02;;;;;;;;;;;;;;;13.67;90.74;99329.61;1630233;86;20119;-72
2022/05/13 00:45:30;;;;;;;;;;;;;;;13.63;90.89;99331.44;1654430;86;20831;-72
2022/05/13 00:48:02;;;;;;;;;;;;;;;13.58;91.49;99327.52;1639395;85;20172;-72
2022/05/13 00:50:30;;;;;;;;;;;;;;;13.50;91.74;99320.14;1667560;85;21181;-72
2022/05/13 00:53:00;;;;;;;;;;;;;;;13.45;91.93;99321.16;1671078;84;20454;-72
2022/05/13 00:55:40;;;;;;;;;;;;;;;13.39;92.07;99323.08;1666085;85;20207;-72
2022/05/13 00:58:07;;;;;;;;;;;;;;;13.33;92.34;99330.76;1660838;85;20108;-72
2022/05/13 01:00:39;;;;;;;;;;;;;;;13.29;92.44;99335.91;1667920;85;20088;-72
2022/05/13 01:03:09;;;;;;;;;;;;;;;13.26;92.57;99331.91;1647470;85;21111;-72
2022/05/13 01:05:38;;;;;;;;;;;;;;;13.19;92.84;99333.84;1646715;85;20096;-72
2022/05/13 01:08:11;;;;;;;;;;;;;;;13.09;92.99;99334.22;1643361;85;20119;-72
2022/05/13 01:10:49;;;;;;;;;;;;;;;13.06;93.20;99334.89;1851137;76;20187;-72
2022/05/13 01:13:20;;;;;;;;;;;;;;;12.98;93.19;99337.14;1780923;80;20115;-72
2022/05/13 01:15:51;;;;;;;;;;;;;;;12.93;93.48;99330.45;1740154;81;20798;-72
2022/05/13 01:18:36;;;;;;;;;;;;;;;12.89;93.75;99335.02;1764981;81;20447;-72
2022/05/13 01:21:13;;;;;;;;;;;;;;;12.85;94.04;99328.00;1734849;82;20122;-72
2022/05/13 01:23:47;;;;;;;;;;;;;;;12.79;94.27;99325.78;1733398;82;20082;-73
2022/05/13 01:26:17;;;;;;;;;;;;;;;12.73;94.39;99322.99;1729622;82;20095;-72
2022/05/13 01:28:54;;;;;;;;;;;;;;;12.65;94.58;99333.53;1734985;82;21096;-72
2022/05/13 01:31:29;;;;;;;;;;;;;;;12.58;94.79;99334.06;1734360;82;20083;-72
2022/05/13 01:34:17;;;;;;;;;;;;;;;12.53;94.75;99336.44;1736664;82;20115;-72
2022/05/13 01:36:33;;;;;;;;;;;;;;;12.42;94.96;99335.77;1725556;82;20142;-72
2022/05/13 01:39:03;;;;;;;;;;;;;;;12.31;95.40;99344.98;1734663;82;20118;-72
2022/05/13 01:41:40;;;;;;;;;;;;;;;12.23;95.96;99357.64;1716732;82;20573;-72
2022/05/13 01:44:11;;;;;;;;;;;;;;;12.20;96.23;99358.88;1734669;82;20143;-72
2022/05/13 01:46:35;;;;;;;;;;;;;;;12.20;96.36;99366.56;1733235;82;20083;-73
2022/05/13 01:49:01;;;;;;;;;;;;;;;12.18;96.16;99362.52;1734966;82;20130;-73
2022/05/13 01:51:32;;;;;;;;;;;;;;;12.14;96.41;99358.82;1734723;82;20441;-72
2022/05/13 01:54:00;;;;;;;;;;;;;;;12.12;96.37;99363.88;1734791;82;21165;-72
2022/05/13 01:56:33;;;;;;;;;;;;;;;12.08;96.42;99367.05;1733135;82;20095;-73
2022/05/13 01:58:59;;;;;;;;;;;;;;;12.01;96.53;99373.63;1734711;82;20071;-73
2022/05/13 02:01:29;;;;;;;;;;;;;;;11.93;96.76;99379.97;1734741;82;20075;-72
2022/05/13 02:04:00;;;;;;;;;;;;;;;11.84;96.96;99391.80;1734729;82;20082;-72
2022/05/13 02:06:31;;;;;;;;;;;;;;;11.79;97.20;99387.84;1717780;82;20087;-73
2022/05/13 02:09:02;;;;;;;;;;;;;;;11.74;97.46;99388.55;1734786;82;20196;-73
2022/05/13 02:11:41;;;;;;;;;;;;;;;11.65;97.61;99395.45;1734301;82;20129;-74
2022/05/13 02:14:10;;;;;;;;;;;;;;;11.52;97.57;99395.09;1741404;82;20413;-73
2022/05/13 02:16:35;;;;;;;;;;;;;;;11.41;97.96;99398.73;1749892;82;20452;-73
2022/05/13 02:19:01;;;;;;;;;;;;;;;11.30;98.12;99400.20;1716485;82;21159;-73
2022/05/13 02:21:31;;;;;;;;;;;;;;;11.17;98.58;99395.67;1749549;82;20118;-73
2022/05/13 02:23:57;;;;;;;;;;;;;;;11.06;99.07;99399.30;1715591;83;20143;-73
2022/05/13 02:26:28;;;;;;;;;;;;;;;10.99;99.44;99403.09;1741556;82;20177;-73
2022/05/13 02:29:01;;;;;;;;;;;;;;;10.89;99.76;99400.69;1748556;82;20110;-73
2022/05/13 02:31:24;;;;;;;;;;;;;;;10.83;100.00;99401.97;1715831;83;22129;-74
2022/05/13 02:33:56;;;;;;;;;;;;;;;10.79;100.00;99399.61;1749129;81;20110;-73
2022/05/13 02:36:29;;;;;;;;;;;;;;;10.74;100.00;99398.39;1716075;83;20083;-73
2022/05/13 02:39:02;;;;;;;;;;;;;;;10.67;100.00;99403.55;1748704;81;20126;-73
2022/05/13 02:41:34;;;;;;;;;;;;;;;10.58;100.00;99398.84;1749168;82;20118;-73
2022/05/13 02:44:01;;;;;;;;;;;;;;;10.49;100.00;99402.69;1748719;82;20135;-73
2022/05/13 02:46:35;;;;;;;;;;;;;;;10.43;100.00;99406.70;1746216;82;20094;-73
2022/05/13 02:49:11;;;;;;;;;;;;;;;10.39;100.00;99406.56;1748297;82;20104;-72
2022/05/13 02:51:40;;;;;;;;;;;;;;;10.41;100.00;99411.14;1745026;82;20083;-72
2022/05/13 02:54:22;;;;;;;;;;;;;;;10.41;100.00;99415.25;1749760;82;20449;-71
2022/05/13 02:56:39;;;;;;;;;;;;;;;10.42;100.00;99414.13;1742616;82;21354;-72
2022/05/13 02:59:07;;;;;;;;;;;;;;;10.40;100.00;99416.38;1748202;82;20119;-71
2022/05/13 03:01:38;;;;;;;;;;;;;;;10.39;100.00;99410.67;1748764;80;20083;-72
2022/05/13 03:04:10;;;;;;;;;;;;;;;10.39;100.00;99410.67;1748904;82;20095;-71
2022/05/13 03:06:39;;;;;;;;;;;;;;;10.41;100.00;99415.81;1750116;82;20082;-72
2022/05/13 03:09:07;;;;;;;;;;;;;;;10.44;100.00;99415.99;1747747;82;21139;-74
2022/05/13 03:11:36;;;;;;;;;;;;;;;10.49;100.00;99414.48;1746969;82;20087;-73
2022/05/13 03:14:03;;;;;;;;;;;;;;;10.55;100.00;99418.69;1748024;82;20144;-73
2022/05/13 03:16:35;;;;;;;;;;;;;;;10.57;100.00;99420.55;1748022;82;20095;-73
2022/05/13 03:19:19;;;;;;;;;;;;;;;10.63;100.00;99421.78;1748105;80;20175;-73
2022/05/13 03:21:32;;;;;;;;;;;;;;;10.73;100.00;99429.16;1742232;82;21119;-74
2022/05/13 03:24:05;;;;;;;;;;;;;;;10.83;100.00;99425.31;1726192;82;20122;-74
2022/05/13 03:26:31;;;;;;;;;;;;;;;10.91;100.00;99430.81;1748040;82;20153;-74
2022/05/13 03:28:59;;;;;;;;;;;;;;;11.01;100.00;99435.16;1748076;81;20087;-74
2022/05/13 03:31:25;;;;;;;;;;;;;;;11.12;100.00;99432.35;1743399;82;20103;-74
2022/05/13 03:33:54;;;;;;;;;;;;;;;11.23;100.00;99440.52;1748129;82;21074;-74
2022/05/13 03:36:22;;;;;;;;;;;;;;;11.34;100.00;99443.77;1726010;82;20094;-73
2022/05/13 03:38:51;;;;;;;;;;;;;;;11.43;100.00;99443.20;1748277;82;20422;-73
2022/05/13 03:41:22;;;;;;;;;;;;;;;11.51;100.00;99446.52;1746940;81;20091;-74
2022/05/13 03:43:54;;;;;;;;;;;;;;;11.60;100.00;99457.48;1747620;82;20094;-74
2022/05/13 03:46:20;;;;;;;;;;;;;;;11.69;100.00;99456.09;1750618;82;20111;-74
2022/05/13 03:48:53;;;;;;;;;;;;;;;11.79;100.00;99456.60;1748012;82;20407;-74
2022/05/13 03:51:23;;;;;;;;;;;;;;;11.88;100.00;99459.34;1747206;82;20501;-74
2022/05/13 03:53:54;;;;;;;;;;;;;;;11.95;100.00;99465.16;1747682;81;20091;-74
2022/05/13 03:56:46;;;;;;;;;;;;;;;12.01;100.00;99466.59;1748162;81;20118;-74
2022/05/13 03:58:54;;;;;;;;;;;;;;;12.06;100.00;99464.25;1741322;82;21074;-74
2022/05/13 04:01:20;;;;;;;;;;;;;;;12.12;100.00;99465.69;1748001;81;20091;-74
2022/05/13 04:04:00;;;;;;;;;;;;;;;12.16;100.00;99456.98;1747982;81;20466;-74
2022/05/13 04:09:02;;;;;;;;;;;;;;;12.27;100.00;99455.50;1748134;82;20427;-72
2022/05/13 04:11:33;;;;;;;;;;;;;;;12.35;100.00;99453.28;1736389;81;21156;-72
2022/05/13 04:16:48;;;;;;;;;;;;;;;12.49;99.10;99459.38;1735628;82;20076;-73
2022/05/13 04:19:27;;;;;;;;;;;;;;;12.55;96.90;99464.14;1737538;81;20418;-72
2022/05/13 04:21:52;;;;;;;;;;;;;;;12.58;96.63;99466.23;1734133;82;20084;-72
2022/05/13 04:24:19;;;;;;;;;;;;;;;12.63;95.98;99468.00;1735394;82;21210;-72
2022/05/13 04:26:53;;;;;;;;;;;;;;;12.69;95.99;99463.92;1713333;82;20411;-72
2022/05/13 04:29:27;;;;;;;;;;;;;;;12.78;95.97;99457.77;1711775;82;20138;-73
2022/05/13 04:32:00;;;;;;;;;;;;;;;12.85;94.75;99460.23;1715101;82;20084;-73
2022/05/13 04:34:29;;;;;;;;;;;;;;;12.94;93.96;99459.37;1734558;82;20084;-74
2022/05/13 04:37:02;;;;;;;;;;;;;;;13.03;93.67;99459.56;1733912;82;22015;-73
2022/05/13 04:39:27;;;;;;;;;;;;;;;13.11;93.71;99451.00;1733863;82;20099;-73
2022/05/13 04:44:43;;;;;;;;;;;;;;;13.28;91.81;99455.62;1735286;82;20302;-73
2022/05/13 04:49:56;;;;;;;;;;;;;;;13.47;90.06;99458.69;1735285;82;21165;-75
2022/05/13 04:52:24;;;;;;;;;;;;;;;13.58;88.79;99461.28;1713446;82;20084;-73
2022/05/13 04:54:53;;;;;;;;;;;;;;;13.64;87.72;99468.20;1734739;82;20462;-73
2022/05/13 04:57:19;;;;;;;;;;;;;;;13.72;86.05;99470.08;1735277;82;20071;-73
2022/05/13 04:59:45;;;;;;;;;;;;;;;13.79;85.53;99475.05;1730103;82;20115;-72
2022/05/13 05:02:13;;;;;;;;;;;;;;;13.93;86.22;99470.59;1732438;82;21039;-72
2022/05/13 05:04:47;;;;;;;;;;;;;;;14.11;83.77;99478.94;1715852;82;20085;-73
2022/05/13 05:07:27;;;;;;;;;;;;;;;14.24;79.92;99474.25;1704913;84;20094;-72
2022/05/13 05:09:41;;;;;;;;;;;;;;;14.32;80.14;99476.92;1697136;83;20121;-75
2022/05/13 05:12:10;;;;;;;;;;;;;;;14.36;78.16;99471.52;1715155;83;20121;-73
2022/05/13 05:14:41;;;;;;;;;;;;;;;14.37;78.38;99462.89;1694962;83;20536;-73
2022/05/13 05:17:07;;;;;;;;;;;;;;;14.38;76.40;99466.46;1718468;83;20084;-73
2022/05/13 05:19:41;;;;;;;;;;;;;;;14.38;75.02;99457.61;1699229;82;20077;-74
2022/05/13 05:22:07;;;;;;;;;;;;;;;14.45;75.03;99456.47;1735386;82;20109;-73
2022/05/13 05:24:39;;;;;;;;;;;;;;;14.58;76.87;99466.14;1745569;82;20071;-73
2022/05/13 05:27:10;;;;;;;;;;;;;;;14.74;76.83;99472.61;1748528;80;21892;-73
2022/05/13 05:29:36;;;;;;;;;;;;;;;14.82;76.97;99475.83;1720262;80;20133;-73
2022/05/13 05:32:17;;;;;;;;;;;;;;;14.93;77.81;99476.98;1749009;82;20083;-74
2022/05/13 05:34:33;;;;;;;;;;;;;;;15.02;77.62;99481.78;1744057;82;20110;-74
2022/05/13 05:37:04;;;;;;;;;;;;;;;15.10;77.16;99480.05;1747929;81;20107;-73
2022/05/13 05:39:35;;;;;;;;;;;;;;;15.15;76.76;99484.77;1748130;82;21160;-74
2022/05/13 05:42:03;;;;;;;;;;;;;;;15.19;76.37;99483.50;1721545;82;20419;-75
2022/05/13 05:44:32;;;;;;;;;;;;;;;15.27;75.64;99495.59;1746109;82;20075;-82
2022/05/13 05:47:02;;;;;;;;;;;;;;;15.31;75.01;99501.46;1721545;82;20087;-76
2022/05/13 05:49:35;;;;;;;;;;;;;;;15.38;74.53;99502.25;1747358;82;20473;-77
2022/05/13 05:52:01;;;;;;;;;;;;;;;15.45;74.39;99493.59;1747550;82;20114;-77
2022/05/13 05:57:15;;;;;;;;;;;;;;;15.62;72.86;99493.91;1748271;82;20074;-78
2022/05/13 05:59:46;;;;;;;;;;;;;;;15.74;70.58;99491.68;1723093;80;20201;-79
2022/05/13 06:02:19;;;;;;;;;;;;;;;15.81;68.94;99499.61;1744147;82;20088;-79
2022/05/13 06:04:43;;;;;;;;;;;;;;;15.80;68.14;99502.15;1685846;83;22251;-78
2022/05/13 06:07:17;;;;;;;;;;;;;;;15.81;68.19;99500.19;1720910;82;20166;-77
2022/05/13 06:09:45;;;;;;;;;;;;;;;15.83;63.17;99500.64;1743269;80;20193;-77
2022/05/13 06:12:14;;;;;;;;;;;;;;;15.84;63.91;99505.02;1704807;83;20426;-75
2022/05/13 06:14:42;;;;;;;;;;;;;;;15.85;62.86;99508.02;1692795;83;20175;-85
2022/05/13 06:17:08;;;;;;;;;;;;;;;15.89;63.41;99505.35;1722491;82;21128;-76
2022/05/13 06:19:37;;;;;;;;;;;;;;;16.01;64.07;99504.73;1725897;83;20434;-76
2022/05/13 06:22:08;;;;;;;;;;;;;;;16.18;63.52;99510.50;1725446;81;20138;-75
2022/05/13 06:24:41;;;;;;;;;;;;;;;16.35;64.73;99511.57;1723495;83;20102;-77
2022/05/13 06:27:06;;;;;;;;;;;;;;;16.55;62.99;99511.69;1684770;83;20446;-78
2022/05/13 06:29:35;;;;;;;;;;;;;;;16.58;60.06;99506.81;1715446;83;21141;-80
2022/05/13 06:32:01;;;;;;;;;;;;;;;16.58;61.62;99509.02;1721328;83;20106;-84
2022/05/13 06:34:32;;;;;;;;;;;;;;;16.64;62.21;99520.09;1691864;83;20594;-83
2022/05/13 06:37:02;;;;;;;;;;;;;;;16.66;60.30;99512.80;1701410;82;20230;-88
2022/05/13 06:39:31;;;;;;;;;;;;;;;16.74;58.03;99517.36;1711878;83;20097;-76
2022/05/13 06:42:00;;;;;;;;;;;;;;;16.78;56.79;99519.62;1730875;82;21642;-78
2022/05/13 06:44:28;;;;;;;;;;;;;;;16.81;58.42;99520.29;1729838;82;20236;-82
2022/05/13 06:47:03;;;;;;;;;;;;;;;16.95;58.41;99524.00;1710596;83;20138;-84
2022/05/13 06:49:36;;;;;;;;;;;;;;;17.01;56.97;99519.21;1728026;82;20441;-84
2022/05/13 06:52:02;;;;;;;;;;;;;;;17.08;58.31;99521.35;1728257;82;20471;-82
2022/05/13 06:54:38;;;;;;;;;;;;;;;17.16;53.81;99525.91;1729292;83;21636;-82
2022/05/13 06:57:06;;;;;;;;;;;;;;;17.18;54.37;99531.09;1728831;82;20256;-74
2022/05/13 06:59:39;;;;;;;;;;;;;;;17.21;53.90;99530.38;1709610;83;20130;-76
2022/05/13 07:02:04;;;;;;;;;;;;;;;17.25;53.75;99522.36;1728346;82;20095;-74
2022/05/13 07:04:31;;;;;;;;;;;;;;;17.39;55.54;99525.44;1729176;83;20115;-76
2022/05/13 07:07:03;;;;;;;;;;;;;;;17.58;55.27;99517.73;1729396;83;21272;-77
2022/05/13 07:09:34;;;;;;;;;;;;;;;17.73;54.94;99521.66;1728676;82;20146;-75
2022/05/13 07:12:07;;;;;;;;;;;;;;;17.80;53.80;99521.23;1727806;82;20095;-75
2022/05/13 07:14:43;;;;;;;;;;;;;;;17.93;54.09;99523.25;1735757;82;20426;-80
2022/05/13 07:17:09;;;;;;;;;;;;;;;18.11;53.83;99516.67;1728499;82;20087;-86
2022/05/13 07:19:41;;;;;;;;;;;;;;;18.30;53.56;99517.23;1710214;83;20454;-82
2022/05/13 07:22:08;;;;;;;;;;;;;;;18.34;51.68;99509.19;1728905;83;20150;-75
2022/05/13 07:24:35;;;;;;;;;;;;;;;18.35;52.07;99507.21;1729283;83;20090;-80
2022/05/13 07:27:02;;;;;;;;;;;;;;;18.38;51.38;99510.64;1729479;82;20110;-75
2022/05/13 07:29:32;;;;;;;;;;;;;;;18.36;49.06;99513.79;1727959;82;20114;-74
2022/05/13 07:32:02;;;;;;;;;;;;;;;18.24;49.76;99512.56;1728403;82;21186;-74
2022/05/13 07:34:28;;;;;;;;;;;;;;;18.17;49.47;99519.37;1728456;82;20083;-74
2022/05/13 07:36:56;;;;;;;;;;;;;;;18.15;49.68;99519.73;1729333;83;20453;-74
2022/05/13 07:42:16;;;;;;;;;;;;;;;18.10;50.69;99517.25;1701182;84;20176;-77
2022/05/13 07:44:45;;;;;;;;;;;;;;;18.23;52.03;99522.07;1703268;83;20095;-76
2022/05/13 07:47:14;;;;;;;;;;;;;;;18.35;49.32;99524.69;1711154;83;20407;-80
2022/05/13 07:49:43;;;;;;;;;;;;;;;18.33;49.08;99528.42;1701992;83;20071;-78
2022/05/13 07:52:09;;;;;;;;;;;;;;;18.28;48.56;99524.55;1730624;82;20139;-78
2022/05/13 07:54:42;;;;;;;;;;;;;;;18.24;48.27;99512.56;1704677;84;20136;-82
2022/05/13 07:57:08;;;;;;;;;;;;;;;18.30;49.02;99517.23;1702046;84;21750;-78
2022/05/13 08:00:24;;;;;;;;;;;;;;;18.38;49.06;99517.01;1702614;83;20085;-78
2022/05/13 08:02:04;;;;;;;;;;;;;;;18.46;49.58;99517.36;1707920;83;20111;-76
2022/05/13 08:04:33;;;;;;;;;;;;;;;18.62;48.27;99526.17;1730209;82;20078;-87
2022/05/13 08:07:03;;;;;;;;;;;;;;;18.70;48.83;99524.55;1701753;82;20121;-85
2022/05/13 08:09:31;;;;;;;;;;;;;;;18.85;48.94;99518.64;1701023;83;21247;-80
2022/05/13 08:12:01;;;;;;;;;;;;;;;18.91;49.05;99522.72;1701696;84;20425;-85
2022/05/13 08:14:28;;;;;;;;;;;;;;;18.96;50.02;99534.92;1701432;83;20582;-89
2022/05/13 08:16:59;;;;;;;;;;;;;;;19.05;50.14;99534.08;1710389;81;20103;-79
2022/05/13 08:19:31;;;;;;;;;;;;;;;19.14;47.46;99536.58;1724792;83;20159;-76
2022/05/13 08:21:59;;;;;;;;;;;;;;;19.07;47.13;99545.61;1730339;83;21816;-77
2022/05/13 08:24:28;;;;;;;;;;;;;;;18.94;46.23;99538.66;1729924;82;20465;-79
2022/05/13 08:26:57;;;;;;;;;;;;;;;18.82;46.95;99543.02;1729855;82;20082;-80
2022/05/13 08:29:27;;;;;;;;;;;;;;;18.87;47.51;99535.77;1730799;82;20099;-76
2022/05/13 08:31:55;;;;;;;;;;;;;;;18.98;47.41;99539.53;1730201;82;20122;-77
2022/05/13 08:34:28;;;;;;;;;;;;;;;19.04;47.56;99539.43;1730366;82;21241;-76
2022/05/13 08:36:52;;;;;;;;;;;;;;;18.98;47.49;99536.75;1731031;82;20122;-78
2022/05/13 08:39:23;;;;;;;;;;;;;;;18.98;47.33;99540.11;1730742;82;20129;-86
2022/05/13 08:42:25;;;;;;;;;;;;;;;18.89;46.23;99535.39;1731128;83;20089;-76
2022/05/13 08:44:57;;;;;;;;;;;;;;;18.75;46.85;99530.38;1721437;83;20087;-83
2022/05/13 08:47:22;;;;;;;;;;;;;;;18.75;47.95;99533.97;1731127;82;21137;-82
2022/05/13 08:49:57;;;;;;;;;;;;;;;18.85;48.09;99529.77;1689122;83;20087;-77
2022/05/13 08:55:24;;;;;;;;;;;;;;;19.21;46.49;99536.69;1730558;82;20095;-76
2022/05/13 08:57:48;;;;;;;;;;;;;;;19.29;45.71;99530.65;1712416;83;20418;-72
2022/05/13 09:00:21;;;;;;;;;;;;;;;19.26;45.59;99534.18;1731093;83;21983;-72
2022/05/13 09:02:57;;;;;;;;;;;;;;;19.20;45.34;99518.98;1730819;82;20410;-73
2022/05/13 09:05:29;;;;;;;;;;;;;;;19.12;47.19;99518.06;1730573;82;20124;-74
2022/05/13 09:07:55;;;;;;;;;;;;;;;19.11;45.69;99520.05;1737019;82;20091;-73
2022/05/13 09:10:28;;;;;;;;;;;;;;;19.06;45.85;99516.19;1731165;82;20111;-76
2022/05/13 09:13:17;;;;;;;;;;;;;;;18.98;46.38;99513.10;1735788;82;20098;-75
2022/05/13 09:15:47;;;;;;;;;;;;;;;18.83;47.84;99523.77;1731157;83;20110;-83
2022/05/13 09:18:19;;;;;;;;;;;;;;;18.73;47.53;99523.00;1726432;82;20075;-75
2022/05/13 09:21:02;;;;;;;;;;;;;;;18.75;48.62;99525.62;1734085;82;20419;-81
2022/05/13 09:23:26;;;;;;;;;;;;;;;18.87;48.04;99527.41;1724083;82;20147;-85
2022/05/13 09:26:08;;;;;;;;;;;;;;;18.92;46.48;99521.55;1750520;82;21106;-80
2022/05/13 09:28:38;;;;;;;;;;;;;;;18.91;47.01;99522.72;1741936;82;20095;-84
2022/05/13 09:31:21;;;;;;;;;;;;;;;18.97;47.92;99522.63;1745112;80;20194;-78
2022/05/13 09:33:49;;;;;;;;;;;;;;;19.05;47.22;99513.80;1673636;85;20437;-81
2022/05/13 09:36:28;;;;;;;;;;;;;;;19.11;47.62;99510.30;1722077;83;20143;-80
2022/05/13 09:39:18;;;;;;;;;;;;;;;19.13;48.37;99509.93;1696397;83;20083;-82
2022/05/13 09:41:48;;;;;;;;;;;;;;;19.25;47.79;99511.70;1736685;81;20513;-82
2022/05/13 09:44:25;;;;;;;;;;;;;;;19.30;47.28;99509.99;1722743;83;20130;-81
2022/05/13 09:47:10;;;;;;;;;;;;;;;19.38;47.34;99507.53;1750806;80;20201;-79
2022/05/13 09:49:48;;;;;;;;;;;;;;;19.59;47.41;99499.52;1706017;82;20134;-83
2022/05/13 09:52:13;;;;;;;;;;;;;;;19.82;46.45;99496.60;1710737;83;21156;-72
2022/05/13 09:54:44;;;;;;;;;;;;;;;20.01;46.77;99487.28;1742608;82;20174;-75
2022/05/13 09:57:36;;;;;;;;;;;;;;;20.28;46.27;99491.55;1751315;82;20426;-79
2022/05/13 10:00:06;;;;;;;;;;;;;;;20.50;44.56;99494.59;1749339;82;20458;-82
2022/05/13 10:02:36;;;;;;;;;;;;;;;20.70;44.88;99490.41;1750545;82;20154;-85
2022/05/13 10:05:16;;;;;;;;;;;;;;;20.85;44.99;99490.70;1750916;82;21077;-77
2022/05/13 10:07:55;;;;;;;;;;;;;;;21.08;44.53;99489.09;1749918;82;20466;-81
2022/05/13 10:16:03;;;;;;;;;;;;;;;21.40;42.86;99480.94;1750841;80;20456;-77
2022/05/13 10:18:33;;;;;;;;;;;;;;;21.60;43.23;99483.66;1712768;83;21125;-81
2022/05/13 10:21:03;;;;;;;;;;;;;;;21.69;42.04;99471.53;1712231;82;20461;-78
2022/05/13 10:23:39;;;;;;;;;;;;;;;21.80;42.37;99470.78;1747199;82;20122;-76
2022/05/13 10:26:13;;;;;;;;;;;;;;;21.94;42.09;99472.23;1747713;82;20095;-76
2022/05/13 10:29:14;;;;;;;;;;;;;;;22.10;41.39;99462.10;1727544;82;20135;-71
2022/05/13 10:31:30;;;;;;;;;;;;;;;22.10;40.68;99458.71;1704378;82;21235;-71
2022/05/13 10:34:03;;;;;;;;;;;;;;;21.82;39.53;99466.39;1751862;81;20135;-75
2022/05/13 10:37:00;;;;;;;;;;;;;;;21.55;40.52;99464.47;1747486;82;20130;-75
2022/05/13 10:39:45;;;;;;;;;;;;;;;21.51;41.13;99467.04;1748035;82;20106;-70
2022/05/13 10:42:22;;;;;;;;;;;;;;;21.56;40.84;99464.67;1747744;82;20131;-71
2022/05/13 10:45:15;;;;;;;;;;;;;;;21.57;41.75;99456.50;1748213;82;21230;-71
2022/05/13 10:48:06;;;;;;;;;;;;;;;21.52;40.47;99462.45;1744286;82;20163;-70
2022/05/13 10:51:08;;;;;;;;;;;;;;;21.42;40.50;99459.02;1714734;82;20125;-71
2022/05/13 10:54:03;;;;;;;;;;;;;;;21.28;40.56;99449.19;1748286;82;20442;-73
2022/05/13 10:56:33;;;;;;;;;;;;;;;21.10;40.16;99445.66;1714845;82;20449;-70
2022/05/13 10:59:25;;;;;;;;;;;;;;;21.04;38.85;99449.20;1709130;83;21156;-71
2022/05/13 11:02:05;;;;;;;;;;;;;;;20.98;39.96;99434.80;1718299;83;20476;-70
2022/05/13 11:04:47;;;;;;;;;;;;;;;21.10;40.18;99435.09;1697306;83;20447;-69
2022/05/13 11:07:19;;;;;;;;;;;;;;;21.18;40.14;99427.56;1726034;82;20482;-71
2022/05/13 11:10:16;;;;;;;;;;;;;;;21.24;40.08;99430.22;1747873;82;20422;-70
2022/05/13 11:13:14;;;;;;;;;;;;;;;21.22;38.60;99420.03;1726086;82;21169;-74
2022/05/13 11:15:45;;;;;;;;;;;;;;;21.12;39.47;99422.94;1718319;83;20129;-78
2022/05/13 11:18:32;;;;;;;;;;;;;;;21.32;40.42;99423.48;1698834;83;20097;-75
2022/05/13 11:21:07;;;;;;;;;;;;;;;21.73;39.16;99415.07;1700777;83;20204;-74
2022/05/13 11:26:52;;;;;;;;;;;;;;;22.07;36.76;99395.20;1689286;84;20097;-74
2022/05/13 11:29:37;;;;;;;;;;;;;;;21.94;37.28;99399.57;1728655;83;20083;-74
2022/05/13 11:32:25;;;;;;;;;;;;;;;21.87;37.89;99394.77;1729562;83;20083;-75
2022/05/13 11:35:08;;;;;;;;;;;;;;;21.88;39.20;99397.76;1716686;83;20086;-81
2022/05/13 11:37:39;;;;;;;;;;;;;;;21.99;38.43;99390.77;1673278;86;20158;-78
2022/05/13 11:40:34;;;;;;;;;;;;;;;22.05;37.77;99387.81;1673040;86;21253;-74
2022/05/13 11:43:20;;;;;;;;;;;;;;;22.00;38.32;99388.17;1716888;83;20133;-80
2022/05/13 11:46:25;;;;;;;;;;;;;;;22.06;38.11;99395.80;1702052;84;20085;-76
2022/05/13 11:49:12;;;;;;;;;;;;;;;22.14;38.37;99390.23;1702021;83;20126;-77
2022/05/13 11:51:42;;;;;;;;;;;;;;;22.38;38.21;99379.08;1702034;83;20440;-72
2022/05/13 11:54:19;;;;;;;;;;;;;;;22.60;38.13;99379.05;1689567;84;20101;-73
2022/05/13 11:56:49;;;;;;;;;;;;;;;22.79;37.64;99390.45;1689917;84;20498;-74
2022/05/13 11:59:45;;;;;;;;;;;;;;;22.86;38.30;99380.05;1701436;83;20097;-76
2022/05/13 12:02:29;;;;;;;;;;;;;;;23.10;36.21;99379.81;1701415;83;20077;-74
2022/05/13 12:05:16;;;;;;;;;;;;;;;23.20;36.58;99369.75;1689397;84;20121;-75
2022/05/13 12:07:54;;;;;;;;;;;;;;;23.16;37.47;99375.36;1701227;83;21158;-75
2022/05/13 12:10:28;;;;;;;;;;;;;;;23.15;36.29;99370.16;1689235;84;20712;-74
2022/05/13 12:13:21;;;;;;;;;;;;;;;23.20;37.56;99360.75;1713515;83;20095;-70
2022/05/13 12:16:20;;;;;;;;;;;;;;;23.27;35.50;99357.92;1721556;83;20123;-74
2022/05/13 12:18:51;;;;;;;;;;;;;;;23.19;36.29;99351.35;1728480;82;20087;-72
2022/05/13 12:21:28;;;;;;;;;;;;;;;22.88;35.38;99353.86;1729806;82;21240;-71
2022/05/13 12:23:58;;;;;;;;;;;;;;;22.52;36.67;99357.30;1728192;82;20095;-72
2022/05/13 12:26:45;;;;;;;;;;;;;;;22.37;37.30;99347.31;1717427;83;20115;-72
2022/05/13 12:29:24;;;;;;;;;;;;;;;22.50;37.99;99351.30;1729711;82;20132;-70
2022/05/13 12:31:58;;;;;;;;;;;;;;;22.74;36.97;99345.45;1729897;82;20099;-74
2022/05/13 12:37:36;;;;;;;;;;;;;;;22.51;37.26;99350.70;1716762;82;20085;-71
2022/05/13 12:40:26;;;;;;;;;;;;;;;22.64;38.61;99332.28;1717317;83;20086;-70
2022/05/13 12:43:08;;;;;;;;;;;;;;;22.89;37.91;99324.67;1729665;83;20139;-71
2022/05/13 12:45:45;;;;;;;;;;;;;;;22.95;36.17;99327.86;1713030;83;20450;-75
2022/05/13 12:48:20;;;;;;;;;;;;;;;22.79;37.07;99318.50;1730602;82;21794;-74
2022/05/13 12:51:15;;;;;;;;;;;;;;;22.72;37.24;99322.67;1724147;82;20083;-77
2022/05/13 12:53:53;;;;;;;;;;;;;;;22.60;37.74;99325.89;1656734;86;20492;-75
2022/05/13 12:56:35;;;;;;;;;;;;;;;22.39;37.43;99320.55;1706897;82;20196;-74
2022/05/13 12:59:13;;;;;;;;;;;;;;;22.22;38.10;99317.15;1730305;83;20082;-75
2022/05/13 13:01:45;;;;;;;;;;;;;;;22.15;37.23;99315.75;1731086;82;21092;-73
2022/05/13 13:04:13;;;;;;;;;;;;;;;22.12;37.70;99305.36;1730126;83;20449;-75
2022/05/13 13:06:43;;;;;;;;;;;;;;;22.12;37.64;99306.77;1730661;83;20442;-78
2022/05/13 13:09:32;;;;;;;;;;;;;;;22.05;37.77;99300.57;1731100;83;20115;-76
2022/05/13 13:12:08;;;;;;;;;;;;;;;22.13;38.59;99297.78;1730761;82;20086;-78
2022/05/13 13:14:48;;;;;;;;;;;;;;;22.15;37.26;99293.39;1730887;83;21285;-77
2022/05/13 13:17:39;;;;;;;;;;;;;;;22.06;37.48;99294.38;1730936;82;20421;-77
2022/05/13 13:20:08;;;;;;;;;;;;;;;22.01;38.36;99292.78;1732095;81;20154;-78
2022/05/13 13:22:41;;;;;;;;;;;;;;;22.08;38.02;99294.78;1733537;82;20119;-77
2022/05/13 13:25:25;;;;;;;;;;;;;;;22.15;38.95;99283.60;1733887;83;20099;-76
2022/05/13 13:27:56;;;;;;;;;;;;;;;22.27;39.05;99283.20;1716911;83;21135;-77
2022/05/13 13:30:22;;;;;;;;;;;;;;;22.35;37.28;99281.99;1733859;82;20109;-76
2022/05/13 13:32:50;;;;;;;;;;;;;;;22.21;37.98;99282.00;1733627;83;20094;-78
2022/05/13 13:35:18;;;;;;;;;;;;;;;22.05;37.69;99285.80;1733582;83;20434;-77
2022/05/13 13:37:45;;;;;;;;;;;;;;;21.84;38.11;99283.78;1741201;82;20180;-77
2022/05/13 13:40:19;;;;;;;;;;;;;;;21.66;38.88;99275.97;1733669;83;21168;-79
2022/05/13 13:42:46;;;;;;;;;;;;;;;21.59;39.28;99268.38;1733520;83;20119;-78
2022/05/13 13:45:18;;;;;;;;;;;;;;;21.53;38.74;99265.77;1732965;82;20468;-86